Time;durP1;ratioP1;P1;durP2;ratioP2;P2;SDS_P1;SDS_P2;PMS_P1;PMS_P2;Temp;Humidity;BMP_temperature;BMP_pressure;BME280_temperature;BME280_humidity;BME280_pressure;Samples;Min_cycle;Max_cycle;Signal;HPM_P1;HPM_P2
2021/11/24 00:01:45;;;;;;;61.67;32.20;;;6.70;99.90;;;;;;4963045;29;20181;-96
2021/11/24 00:04:11;;;;;;;61.23;33.70;;;6.80;99.90;;;;;;4962249;28;20228;-95
2021/11/24 00:06:38;;;;;;;63.40;34.30;;;6.80;99.90;;;;;;4931013;29;20225;-96
2021/11/24 00:09:17;;;;;;;69.10;34.77;;;6.80;99.90;;;;;;4963553;28;20196;-96
2021/11/24 00:11:43;;;;;;;59.53;32.93;;;6.80;99.90;;;;;;4965682;28;20620;-96
2021/11/24 00:14:09;;;;;;;60.13;32.40;;;6.80;99.90;;;;;;4967696;29;20218;-96
2021/11/24 00:16:35;;;;;;;56.20;31.37;;;6.80;99.90;;;;;;4952455;29;20197;-95
2021/11/24 00:19:03;;;;;;;59.67;31.00;;;6.80;99.90;;;;;;4969488;28;20273;-96
2021/11/24 00:21:48;;;;;;;54.80;28.70;;;6.80;99.90;;;;;;4968662;28;20200;-96
2021/11/24 00:24:14;;;;;;;53.43;30.07;;;6.80;99.90;;;;;;4961267;28;20251;-95
2021/11/24 00:26:44;;;;;;;61.00;32.20;;;6.80;99.90;;;;;;4959174;28;20244;-96
2021/11/24 00:29:14;;;;;;;52.30;29.13;;;6.80;99.90;;;;;;4959357;28;20307;-96
2021/11/24 00:31:41;;;;;;;53.83;31.67;;;6.80;99.90;;;;;;4944221;29;20197;-95
2021/11/24 00:34:08;;;;;;;56.40;30.63;;;6.80;99.90;;;;;;4961751;28;20193;-96
2021/11/24 00:36:34;;;;;;;58.17;31.70;;;6.80;99.90;;;;;;4944786;29;20276;-96
2021/11/24 00:39:17;;;;;;;58.07;31.73;;;6.80;99.90;;;;;;4962012;28;20189;-95
2021/11/24 00:41:49;;;;;;;59.00;32.13;;;6.80;99.90;;;;;;4946390;29;20178;-95
2021/11/24 00:44:17;;;;;;;59.73;32.17;;;6.80;99.90;;;;;;4946605;29;20261;-95
2021/11/24 00:46:43;;;;;;;62.23;33.00;;;6.80;99.90;;;;;;4962652;28;20193;-96
2021/11/24 00:49:10;;;;;;;58.63;32.03;;;6.80;99.90;;;;;;4962354;28;20193;-95
2021/11/24 00:51:37;;;;;;;62.40;32.10;;;6.80;99.90;;;;;;4963354;29;20188;-96
2021/11/24 00:54:07;;;;;;;69.63;33.13;;;6.80;99.90;;;;;;4931897;29;20190;-96
2021/11/24 00:56:36;;;;;;;63.37;33.23;;;6.80;99.90;;;;;;4965053;29;20173;-95
2021/11/24 00:59:04;;;;;;;56.83;31.17;;;6.80;99.90;;;;;;4962172;28;20215;-96
2021/11/24 01:01:31;;;;;;;57.50;31.63;;;6.80;99.90;;;;;;4963950;29;20205;-95
2021/11/24 01:03:57;;;;;;;57.40;33.03;;;6.90;99.90;;;;;;4963210;28;20220;-96
2021/11/24 01:06:23;;;;;;;55.50;31.57;;;6.80;99.90;;;;;;4947230;29;20193;-95
2021/11/24 01:09:00;;;;;;;56.40;29.83;;;6.90;99.90;;;;;;4964948;28;20176;-96
2021/11/24 01:11:29;;;;;;;58.77;31.73;;;6.80;99.90;;;;;;4931285;29;20189;-96
2021/11/24 01:13:55;;;;;;;54.87;31.10;;;6.80;99.90;;;;;;4947378;29;20240;-95
2021/11/24 01:16:21;;;;;;;60.17;31.20;;;6.80;99.90;;;;;;4962634;28;20200;-96
2021/11/24 01:18:54;;;;;;;58.50;30.33;;;6.80;99.90;;;;;;4962411;29;20197;-96
2021/11/24 01:21:20;;;;;;;63.30;32.17;;;6.80;99.90;;;;;;4963772;29;20200;-96
2021/11/24 01:23:46;;;;;;;60.83;29.93;;;6.80;99.90;;;;;;4961580;28;20221;-95
2021/11/24 01:26:14;;;;;;;57.70;31.40;;;6.80;99.90;;;;;;4962338;28;20264;-96
2021/11/24 01:28:55;;;;;;;53.37;30.80;;;6.80;99.90;;;;;;4963054;29;20193;-96
2021/11/24 01:31:21;;;;;;;56.87;30.00;;;6.90;99.90;;;;;;4970235;29;20193;-95
2021/11/24 01:33:47;;;;;;;54.43;29.40;;;6.80;99.90;;;;;;4941546;29;20181;-94
2021/11/24 01:36:13;;;;;;;53.07;29.30;;;6.80;99.90;;;;;;4941786;28;20174;-96
2021/11/24 01:39:04;;;;;;;59.47;30.37;;;6.90;99.90;;;;;;4965133;28;20241;-96
2021/11/24 01:41:33;;;;;;;54.13;28.20;;;6.90;99.90;;;;;;4978188;28;20189;-96
2021/11/24 01:44:00;;;;;;;61.80;29.63;;;6.90;99.90;;;;;;4974509;28;20229;-96
2021/11/24 01:46:28;;;;;;;52.37;29.40;;;6.90;99.90;;;;;;4943458;28;20180;-95
2021/11/24 01:49:45;;;;;;;52.27;29.43;;;6.80;99.90;;;;;;4943546;28;20340;-96
2021/11/24 01:52:11;;;;;;;51.90;27.60;;;6.90;99.90;;;;;;4959833;28;20200;-95
2021/11/24 01:54:40;;;;;;;49.63;27.53;;;6.90;99.90;;;;;;4959103;28;20169;-96
2021/11/24 01:57:08;;;;;;;55.00;29.07;;;6.80;99.90;;;;;;4959180;28;20173;-95
2021/11/24 01:59:48;;;;;;;53.40;28.33;;;6.90;99.90;;;;;;4945505;28;20214;-96
2021/11/24 02:02:20;;;;;;;50.27;27.40;;;6.90;99.90;;;;;;4980044;28;20197;-95
2021/11/24 02:04:57;;;;;;;48.47;27.40;;;6.90;99.90;;;;;;4949025;28;20176;-95
2021/11/24 02:07:23;;;;;;;53.93;27.70;;;6.90;99.90;;;;;;4960441;29;20265;-95
2021/11/24 02:10:30;;;;;;;50.57;26.73;;;6.90;99.90;;;;;;4966129;29;20181;-96
2021/11/24 02:12:56;;;;;;;52.73;26.83;;;6.90;99.90;;;;;;4964533;28;20237;-95
2021/11/24 02:15:23;;;;;;;53.43;27.60;;;6.90;99.90;;;;;;4963685;28;20177;-96
2021/11/24 02:17:50;;;;;;;51.77;27.63;;;6.90;99.90;;;;;;4964173;29;20190;-95
2021/11/24 02:20:43;;;;;;;53.97;29.13;;;6.90;99.90;;;;;;4966848;28;20194;-95
2021/11/24 02:23:13;;;;;;;58.17;28.20;;;6.90;99.90;;;;;;4966937;28;20255;-95
2021/11/24 02:25:40;;;;;;;53.40;28.07;;;6.80;99.90;;;;;;4951399;28;20174;-95
2021/11/24 02:28:39;;;;;;;59.97;29.30;;;6.90;99.90;;;;;;4949880;28;20173;-95
2021/11/24 02:31:06;;;;;;;50.43;26.37;;;6.80;99.90;;;;;;4965472;28;20173;-95
2021/11/24 02:33:33;;;;;;;53.87;29.00;;;6.90;99.90;;;;;;4966567;29;20236;-95
2021/11/24 02:36:03;;;;;;;57.97;30.57;;;6.80;99.90;;;;;;4966186;28;20238;-96
2021/11/24 02:39:02;;;;;;;60.10;30.93;;;6.90;99.90;;;;;;4966042;29;20173;-95
